Time;durP1;ratioP1;P1;durP2;ratioP2;P2;SDS_P1;SDS_P2;PMS_P1;PMS_P2;Temp;Humidity;BMP_temperature;BMP_pressure;BME280_temperature;BME280_humidity;BME280_pressure;Samples;Min_cycle;Max_cycle;Signal;HPM_P1;HPM_P2
2022/09/02 00:00:40;;;;;;;2.83;2.28;;;16.00;67.30;;;;;;4996785;28;20085;-78
2022/09/02 00:03:06;;;;;;;5.80;2.83;;;16.10;67.10;;;;;;4996609;28;20022;-78
2022/09/02 00:05:31;;;;;;;2.00;1.77;;;16.00;66.90;;;;;;4996822;28;20030;-78
2022/09/02 00:07:57;;;;;;;2.92;2.10;;;16.00;66.80;;;;;;4996609;28;20370;-76
2022/09/02 00:10:24;;;;;;;3.50;2.13;;;16.00;66.60;;;;;;4996895;28;20032;-77
2022/09/02 00:12:49;;;;;;;3.28;1.90;;;16.00;66.60;;;;;;4996540;28;20419;-77
2022/09/02 00:15:15;;;;;;;3.03;1.73;;;16.00;66.30;;;;;;4996918;28;20026;-77
2022/09/02 00:17:42;;;;;;;6.28;2.30;;;16.00;66.50;;;;;;5014021;28;20117;-76
2022/09/02 00:20:08;;;;;;;2.65;2.20;;;15.90;66.70;;;;;;4996509;28;20037;-76
2022/09/02 00:22:34;;;;;;;2.45;2.08;;;15.90;66.70;;;;;;4996443;28;20470;-77
2022/09/02 00:25:01;;;;;;;3.63;2.50;;;15.90;66.70;;;;;;4996487;28;20066;-77
2022/09/02 00:27:26;;;;;;;2.80;2.30;;;15.90;66.50;;;;;;4996153;28;20040;-77
2022/09/02 00:29:52;;;;;;;3.45;2.00;;;15.90;66.70;;;;;;4996600;28;20030;-76
2022/09/02 00:32:19;;;;;;;2.65;2.05;;;15.90;66.50;;;;;;4996573;28;20026;-73
2022/09/02 00:34:45;;;;;;;2.35;2.15;;;15.90;66.80;;;;;;4996665;28;20072;-74
2022/09/02 00:37:12;;;;;;;4.28;2.05;;;15.80;66.80;;;;;;4996212;28;20034;-75
2022/09/02 00:39:38;;;;;;;3.65;2.25;;;15.80;67.10;;;;;;4996175;28;20054;-74
2022/09/02 00:42:05;;;;;;;4.38;2.17;;;15.80;67.10;;;;;;4996490;28;20030;-74
2022/09/02 00:44:32;;;;;;;3.67;2.35;;;15.80;68.10;;;;;;4996323;28;20034;-74
2022/09/02 00:46:58;;;;;;;3.05;1.90;;;15.70;67.00;;;;;;4988219;28;20073;-74
2022/09/02 00:49:30;;;;;;;3.50;2.50;;;15.70;67.20;;;;;;4995980;28;20021;-74
2022/09/02 00:52:22;;;;;;;4.18;2.20;;;15.70;67.50;;;;;;4980133;28;20034;-75
2022/09/02 00:55:16;;;;;;;3.50;2.00;;;15.60;67.10;;;;;;5013851;28;20550;-75
2022/09/02 00:57:55;;;;;;;2.05;1.75;;;15.60;67.40;;;;;;4995747;28;20037;-75
2022/09/02 01:00:24;;;;;;;3.47;1.80;;;15.50;67.30;;;;;;4996097;28;20057;-76
2022/09/02 01:02:59;;;;;;;4.35;2.22;;;15.50;67.80;;;;;;5013597;28;20053;-76
2022/09/02 01:05:30;;;;;;;3.35;2.33;;;15.50;68.00;;;;;;4996011;28;20482;-77
2022/09/02 01:07:57;;;;;;;3.33;1.95;;;15.50;68.10;;;;;;4995743;28;20060;-75
2022/09/02 01:10:27;;;;;;;3.50;2.05;;;15.50;67.80;;;;;;4995542;28;20030;-75
2022/09/02 01:13:05;;;;;;;3.10;1.80;;;15.50;68.00;;;;;;4995777;28;20030;-75
2022/09/02 01:15:33;;;;;;;3.05;2.15;;;15.50;67.70;;;;;;4995865;28;20100;-76
2022/09/02 01:17:59;;;;;;;2.17;1.77;;;15.50;66.90;;;;;;4987947;28;20042;-75
2022/09/02 01:20:25;;;;;;;3.28;2.03;;;15.50;67.30;;;;;;5013285;28;20067;-75
2022/09/02 01:22:52;;;;;;;2.45;1.67;;;15.40;67.00;;;;;;4995661;28;20030;-74
2022/09/02 01:25:26;;;;;;;2.85;2.10;;;15.50;67.00;;;;;;4995768;28;20097;-74
2022/09/02 01:27:52;;;;;;;2.40;1.70;;;15.50;66.90;;;;;;4995883;28;20482;-77
2022/09/02 01:30:24;;;;;;;4.95;1.80;;;15.40;67.00;;;;;;4995360;28;20085;-74
2022/09/02 01:32:50;;;;;;;2.67;1.88;;;15.30;67.50;;;;;;4995349;28;20026;-75
2022/09/02 01:35:16;;;;;;;2.38;1.90;;;15.30;67.70;;;;;;4999923;28;20029;-75
2022/09/02 01:37:43;;;;;;;2.30;1.88;;;15.30;67.30;;;;;;4997477;28;20382;-75
2022/09/02 01:40:12;;;;;;;3.40;2.30;;;15.30;67.50;;;;;;4996462;28;20029;-74
2022/09/02 01:42:38;;;;;;;2.17;1.52;;;15.30;67.50;;;;;;4996007;28;20022;-75
2022/09/02 01:45:06;;;;;;;5.78;1.92;;;15.30;67.50;;;;;;4995798;28;20386;-75
2022/09/02 01:47:31;;;;;;;2.88;1.83;;;15.30;67.50;;;;;;4995448;28;20473;-74
2022/09/02 01:49:57;;;;;;;5.30;2.40;;;15.20;67.30;;;;;;4995523;28;20084;-74
2022/09/02 01:52:25;;;;;;;1.85;1.50;;;15.20;67.30;;;;;;4995469;28;20022;-75
2022/09/02 01:54:51;;;;;;;3.22;1.92;;;15.20;67.20;;;;;;4995285;28;20080;-75
2022/09/02 01:57:17;;;;;;;3.53;2.00;;;15.20;67.10;;;;;;4979218;28;20098;-74
2022/09/02 01:59:45;;;;;;;3.38;2.00;;;15.10;67.30;;;;;;4995008;28;20405;-76
2022/09/02 02:02:18;;;;;;;3.97;1.90;;;15.10;67.10;;;;;;5012923;28;20228;-76
2022/09/02 02:04:44;;;;;;;3.22;1.42;;;15.10;67.00;;;;;;4995284;28;20038;-75
2022/09/02 02:07:13;;;;;;;3.63;2.05;;;15.10;66.80;;;;;;4995458;28;20381;-74
2022/09/02 02:09:39;;;;;;;2.10;1.55;;;15.10;66.30;;;;;;4995407;28;20032;-74
2022/09/02 02:12:06;;;;;;;3.75;1.63;;;15.10;65.40;;;;;;4995083;28;20026;-74
2022/09/02 02:14:31;;;;;;;2.95;2.00;;;15.10;65.70;;;;;;4995200;28;20033;-74
2022/09/02 02:16:57;;;;;;;3.60;1.63;;;15.00;66.10;;;;;;4994839;28;20098;-74
2022/09/02 02:19:22;;;;;;;2.88;1.58;;;15.00;65.70;;;;;;4995296;28;20052;-74
2022/09/02 02:21:48;;;;;;;3.80;1.48;;;15.00;65.70;;;;;;4998720;28;20425;-73
2022/09/02 02:24:14;;;;;;;1.95;1.75;;;14.90;65.80;;;;;;4998832;28;20426;-74
2022/09/02 02:26:40;;;;;;;2.70;1.73;;;14.90;66.10;;;;;;4998776;28;20485;-74
2022/09/02 02:29:05;;;;;;;2.50;1.85;;;14.90;66.20;;;;;;4998650;28;20463;-73
2022/09/02 02:31:31;;;;;;;4.45;1.70;;;14.80;66.10;;;;;;4998513;28;20065;-74
2022/09/02 02:33:57;;;;;;;3.25;2.00;;;14.80;67.10;;;;;;4990892;28;20029;-74
2022/09/02 02:36:22;;;;;;;1.80;1.60;;;14.80;66.20;;;;;;4998598;28;20089;-73
2022/09/02 02:38:48;;;;;;;3.03;1.67;;;14.80;66.60;;;;;;4997950;28;20444;-73
2022/09/02 02:41:14;;;;;;;4.22;1.95;;;14.70;66.80;;;;;;4998221;28;20065;-75
2022/09/02 02:43:40;;;;;;;2.63;1.90;;;14.70;66.40;;;;;;4998236;28;20057;-74
2022/09/02 02:46:06;;;;;;;4.25;1.90;;;14.70;66.90;;;;;;4998051;28;20545;-73
2022/09/02 02:48:34;;;;;;;3.30;1.55;;;14.70;66.90;;;;;;4998053;28;20113;-74
2022/09/02 02:50:59;;;;;;;2.63;1.90;;;14.60;67.30;;;;;;4998234;28;20045;-74
2022/09/02 02:53:28;;;;;;;3.30;1.88;;;14.60;67.40;;;;;;4998136;28;20427;-74
2022/09/02 02:55:54;;;;;;;3.10;1.67;;;14.60;67.60;;;;;;4998145;28;20069;-74
2022/09/02 02:58:20;;;;;;;3.35;2.22;;;14.40;68.00;;;;;;4981668;28;20038;-74
2022/09/02 03:00:46;;;;;;;4.47;2.28;;;14.40;68.50;;;;;;4997954;28;20050;-74
2022/09/02 03:03:12;;;;;;;2.72;2.03;;;14.40;68.50;;;;;;4998167;28;20029;-74
2022/09/02 03:05:39;;;;;;;4.53;2.40;;;14.30;68.80;;;;;;4997931;28;20022;-74
2022/09/02 03:08:07;;;;;;;2.40;1.77;;;14.30;68.70;;;;;;4997905;28;20026;-74
2022/09/02 03:10:34;;;;;;;3.78;2.40;;;14.40;68.50;;;;;;4997305;28;20168;-73
2022/09/02 03:13:00;;;;;;;4.03;2.38;;;14.30;68.30;;;;;;4998129;28;20125;-74
2022/09/02 03:15:27;;;;;;;3.75;1.90;;;14.30;68.60;;;;;;4997780;28;20470;-74
2022/09/02 03:17:54;;;;;;;5.18;1.95;;;14.30;69.00;;;;;;4997804;28;20044;-74
2022/09/02 03:20:20;;;;;;;4.22;1.90;;;14.20;69.10;;;;;;4997763;28;20026;-74
2022/09/02 03:22:47;;;;;;;4.72;2.08;;;14.10;69.30;;;;;;4997858;28;20026;-75
2022/09/02 03:25:16;;;;;;;4.10;2.38;;;14.10;69.10;;;;;;4997702;28;20539;-74
2022/09/02 03:27:45;;;;;;;3.38;1.83;;;14.10;69.10;;;;;;4997465;28;20022;-74
2022/09/02 03:30:15;;;;;;;2.90;1.85;;;14.20;68.40;;;;;;4997661;28;20025;-73
2022/09/02 03:32:41;;;;;;;5.00;2.20;;;14.10;68.50;;;;;;4996702;28;20489;-75
2022/09/02 03:35:10;;;;;;;3.20;1.92;;;14.00;68.70;;;;;;4997555;28;20085;-73
2022/09/02 03:37:36;;;;;;;3.35;2.05;;;14.00;69.00;;;;;;4997187;28;20030;-74
2022/09/02 03:40:04;;;;;;;2.17;1.98;;;14.00;68.90;;;;;;4997207;28;20040;-76
2022/09/02 03:42:30;;;;;;;2.65;1.85;;;14.00;68.90;;;;;;4996785;28;20022;-75
2022/09/02 03:44:55;;;;;;;3.40;1.88;;;14.00;68.60;;;;;;4996836;28;20485;-76
2022/09/02 03:47:22;;;;;;;2.95;2.17;;;13.90;68.90;;;;;;4997348;28;20533;-73
2022/09/02 03:49:48;;;;;;;4.05;2.20;;;13.80;68.80;;;;;;4997281;28;20029;-73
2022/09/02 03:52:15;;;;;;;3.33;1.73;;;13.80;69.00;;;;;;4997249;28;20032;-74
2022/09/02 03:54:41;;;;;;;4.70;1.90;;;13.90;68.70;;;;;;4996859;28;20030;-75
2022/09/02 03:57:07;;;;;;;2.85;2.00;;;13.80;69.20;;;;;;4997131;28;20121;-74
2022/09/02 03:59:33;;;;;;;4.47;1.77;;;13.80;69.20;;;;;;4996748;28;20053;-76
2022/09/02 04:02:01;;;;;;;2.83;1.60;;;13.80;69.00;;;;;;4996597;28;20080;-76
2022/09/02 04:04:27;;;;;;;2.13;1.80;;;13.70;69.00;;;;;;4996674;28;20030;-77
2022/09/02 04:06:53;;;;;;;3.35;1.70;;;13.70;69.30;;;;;;4996938;28;20025;-77
2022/09/02 04:09:19;;;;;;;2.78;2.03;;;13.70;69.90;;;;;;4996635;28;20112;-76
2022/09/02 04:11:44;;;;;;;6.25;2.03;;;13.80;68.90;;;;;;4996768;28;20026;-76
2022/09/02 04:14:10;;;;;;;2.65;1.55;;;13.80;69.00;;;;;;4996807;28;20034;-76
2022/09/02 04:16:36;;;;;;;3.67;1.90;;;13.80;68.90;;;;;;4996665;28;20073;-76
2022/09/02 04:19:02;;;;;;;5.75;1.73;;;13.80;68.70;;;;;;4996286;28;20037;-78
2022/09/02 04:21:31;;;;;;;4.15;1.50;;;13.80;68.70;;;;;;4996283;28;20029;-76
2022/09/02 04:23:56;;;;;;;4.38;1.88;;;13.90;68.60;;;;;;4996391;28;20389;-75
2022/09/02 04:26:22;;;;;;;2.75;1.75;;;13.80;68.60;;;;;;4996022;28;20112;-76
2022/09/02 04:28:48;;;;;;;6.60;1.80;;;13.80;68.50;;;;;;4996424;28;20470;-76
2022/09/02 04:31:17;;;;;;;2.45;2.03;;;13.80;68.80;;;;;;4996284;28;20030;-76
2022/09/02 04:33:43;;;;;;;4.00;1.77;;;13.80;69.30;;;;;;4996290;28;20105;-76
2022/09/02 04:36:12;;;;;;;2.75;1.90;;;13.70;69.20;;;;;;4996504;28;20132;-75
2022/09/02 04:38:38;;;;;;;2.97;1.50;;;13.70;69.50;;;;;;4996283;28;20041;-75
2022/09/02 04:41:10;;;;;;;5.78;1.90;;;13.70;69.60;;;;;;4996246;28;20029;-76
2022/09/02 04:43:36;;;;;;;2.42;1.73;;;13.70;69.50;;;;;;4979079;28;20080;-76
2022/09/02 04:46:08;;;;;;;4.20;2.13;;;13.70;69.80;;;;;;4996361;28;20410;-76
2022/09/02 04:48:35;;;;;;;4.30;1.77;;;13.70;69.60;;;;;;4996258;28;20111;-76
2022/09/02 04:51:09;;;;;;;3.15;2.15;;;13.70;69.50;;;;;;4995828;28;20022;-76
2022/09/02 04:53:35;;;;;;;4.22;1.98;;;13.70;69.60;;;;;;4995745;28;20108;-76
2022/09/02 04:56:06;;;;;;;4.13;1.73;;;13.70;69.80;;;;;;4995819;28;20060;-77
2022/09/02 04:58:32;;;;;;;3.42;2.00;;;13.70;69.80;;;;;;4995950;28;20045;-76
2022/09/02 05:00:58;;;;;;;4.25;1.90;;;13.70;70.10;;;;;;4995599;28;20077;-76
2022/09/02 05:03:27;;;;;;;3.42;2.08;;;13.80;69.90;;;;;;4995794;28;20092;-76
2022/09/02 05:06:04;;;;;;;4.15;2.17;;;13.80;69.80;;;;;;4995881;28;20029;-74
2022/09/02 05:08:29;;;;;;;3.13;2.13;;;13.80;69.60;;;;;;4995800;28;20032;-75
2022/09/02 05:10:55;;;;;;;14.07;2.25;;;13.80;69.70;;;;;;4995810;28;20113;-73
2022/09/02 05:13:22;;;;;;;5.50;1.98;;;13.80;69.90;;;;;;4996087;28;20026;-73
2022/09/02 05:15:48;;;;;;;3.88;2.00;;;13.90;70.00;;;;;;4995743;28;20029;-73
2022/09/02 05:18:14;;;;;;;2.85;2.05;;;13.90;69.90;;;;;;4995183;28;20034;-75
2022/09/02 05:20:42;;;;;;;18.40;2.97;;;13.90;70.10;;;;;;4995788;28;20441;-73
2022/09/02 05:23:09;;;;;;;18.45;2.85;;;14.00;73.10;;;;;;4995969;28;20029;-74
2022/09/02 05:25:36;;;;;;;6.13;2.10;;;14.40;76.40;;;;;;4995559;28;20113;-73
2022/09/02 05:28:02;;;;;;;9.82;2.67;;;14.60;70.70;;;;;;5013073;28;20144;-72
2022/09/02 05:30:28;;;;;;;3.92;2.13;;;14.80;68.90;;;;;;5012872;28;20037;-74
2022/09/02 05:32:54;;;;;;;3.22;2.08;;;14.80;67.40;;;;;;5013013;28;20030;-76
2022/09/02 05:35:19;;;;;;;4.78;1.75;;;14.70;67.00;;;;;;5013048;28;20484;-73
2022/09/02 05:37:45;;;;;;;4.13;2.00;;;14.60;67.60;;;;;;5012819;28;20446;-73
2022/09/02 05:40:11;;;;;;;3.08;2.17;;;14.70;67.90;;;;;;4995351;28;20037;-72
2022/09/02 05:42:38;;;;;;;2.90;1.73;;;14.70;67.80;;;;;;5017672;28;20048;-72
2022/09/02 05:45:05;;;;;;;3.38;1.90;;;14.70;67.70;;;;;;5012812;28;20022;-74
2022/09/02 05:47:32;;;;;;;5.15;2.10;;;14.90;67.20;;;;;;5012613;28;20033;-74
2022/09/02 05:50:00;;;;;;;2.55;2.00;;;15.00;67.30;;;;;;5012571;28;20018;-71
2022/09/02 05:52:26;;;;;;;2.95;1.80;;;15.10;66.50;;;;;;5012568;28;20067;-74
2022/09/02 05:54:52;;;;;;;4.07;2.45;;;15.30;66.10;;;;;;5012919;28;20500;-72
2022/09/02 05:57:18;;;;;;;3.40;2.17;;;15.30;65.90;;;;;;5016400;28;20018;-73
2022/09/02 05:59:46;;;;;;;5.70;2.40;;;15.20;65.70;;;;;;5016148;28;20184;-74
2022/09/02 06:02:13;;;;;;;8.43;1.98;;;15.30;66.30;;;;;;5016539;28;20029;-72
2022/09/02 06:04:44;;;;;;;3.63;1.63;;;15.40;66.20;;;;;;5016239;28;20105;-72
2022/09/02 06:07:11;;;;;;;5.60;1.98;;;15.60;65.80;;;;;;5016325;28;20026;-72
2022/09/02 06:09:37;;;;;;;5.18;1.90;;;15.80;65.20;;;;;;4998564;28;20053;-72
2022/09/02 06:12:03;;;;;;;6.22;3.28;;;15.90;65.00;;;;;;5015985;28;20056;-72
2022/09/02 06:14:29;;;;;;;6.00;3.20;;;16.10;64.70;;;;;;5016083;28;20034;-76
2022/09/02 06:16:56;;;;;;;7.38;2.60;;;16.20;63.80;;;;;;5015806;28;20021;-71
2022/09/02 06:19:26;;;;;;;6.63;2.10;;;16.40;63.30;;;;;;5015998;28;20037;-74
2022/09/02 06:21:53;;;;;;;7.13;2.53;;;16.50;63.10;;;;;;4998290;28;20550;-75
2022/09/02 06:24:19;;;;;;;2.47;1.90;;;16.70;63.00;;;;;;5016099;28;20060;-73
2022/09/02 06:26:44;;;;;;;9.63;1.80;;;16.90;61.70;;;;;;5016077;28;20458;-72
2022/09/02 06:29:11;;;;;;;5.70;1.60;;;16.90;61.60;;;;;;5015690;28;20040;-73
2022/09/02 06:31:39;;;;;;;5.78;2.13;;;16.90;61.40;;;;;;5015826;28;20022;-71
2022/09/02 06:34:04;;;;;;;6.22;1.95;;;17.00;61.20;;;;;;5015872;28;20093;-75
2022/09/02 06:36:31;;;;;;;4.60;1.67;;;17.00;61.20;;;;;;5015573;28;20104;-70
2022/09/02 06:38:58;;;;;;;6.10;2.00;;;17.00;60.90;;;;;;4997891;28;20351;-72
2022/09/02 06:41:27;;;;;;;3.05;1.75;;;17.10;60.70;;;;;;5015263;28;20031;-74
2022/09/02 06:43:56;;;;;;;6.40;1.83;;;17.00;60.50;;;;;;5015143;28;20535;-72
2022/09/02 06:46:27;;;;;;;4.53;2.13;;;17.10;60.50;;;;;;5015593;28;20026;-74
2022/09/02 06:48:53;;;;;;;7.22;2.28;;;17.20;60.30;;;;;;5014875;28;20054;-72
2022/09/02 06:51:28;;;;;;;3.25;1.63;;;17.20;60.30;;;;;;5015336;28;20064;-72
2022/09/02 06:53:54;;;;;;;7.55;1.80;;;17.30;59.90;;;;;;5015302;28;20120;-76
2022/09/02 06:56:21;;;;;;;4.25;1.95;;;17.40;59.40;;;;;;5014971;28;20061;-74
2022/09/02 06:58:47;;;;;;;5.50;1.73;;;17.40;59.10;;;;;;5015149;28;20497;-72
2022/09/02 07:01:23;;;;;;;6.03;2.00;;;17.40;59.20;;;;;;5015465;28;20054;-72
2022/09/02 07:06:39;;;;;;;4.97;1.55;;;17.60;58.80;;;;;;5013318;28;20551;-72
2022/09/02 07:09:07;;;;;;;4.75;1.60;;;17.70;59.40;;;;;;5015035;28;20581;-72
2022/09/02 07:11:32;;;;;;;6.13;1.92;;;17.70;58.40;;;;;;5014485;28;20551;-73
2022/09/02 07:14:00;;;;;;;3.35;1.70;;;17.70;58.10;;;;;;5013456;28;20104;-72
2022/09/02 07:16:32;;;;;;;2.00;1.50;;;17.80;58.30;;;;;;5014373;28;20025;-72
2022/09/02 07:19:00;;;;;;;3.30;2.38;;;17.80;58.20;;;;;;5014778;28;20108;-72
2022/09/02 07:21:27;;;;;;;5.10;1.75;;;17.90;58.00;;;;;;4997150;28;20381;-72
2022/09/02 07:23:54;;;;;;;4.78;1.83;;;18.10;57.40;;;;;;5014870;28;20026;-73
2022/09/02 07:26:21;;;;;;;4.38;1.98;;;18.10;57.10;;;;;;5014769;28;20022;-72
2022/09/02 07:28:46;;;;;;;4.35;1.85;;;18.20;56.70;;;;;;5014811;28;20033;-75
2022/09/02 07:31:14;;;;;;;3.50;1.90;;;18.30;56.90;;;;;;5014781;28;20030;-75
2022/09/02 07:33:41;;;;;;;3.95;1.60;;;18.40;56.50;;;;;;5014525;28;20022;-76
2022/09/02 07:36:09;;;;;;;2.92;2.10;;;18.30;57.10;;;;;;5014711;28;20546;-79
2022/09/02 07:38:35;;;;;;;4.53;2.10;;;18.30;57.60;;;;;;5014432;28;20112;-76
2022/09/02 07:41:02;;;;;;;5.90;2.17;;;18.30;58.20;;;;;;5013318;28;20542;-74
2022/09/02 07:43:30;;;;;;;6.18;1.65;;;18.30;58.60;;;;;;5013149;28;20053;-73
2022/09/02 07:45:56;;;;;;;4.88;2.10;;;18.40;58.20;;;;;;5013055;28;20068;-72
2022/09/02 07:48:23;;;;;;;4.72;2.03;;;18.50;58.60;;;;;;5012749;28;20109;-73
2022/09/02 07:50:50;;;;;;;3.42;1.73;;;18.50;59.10;;;;;;5013475;28;20483;-73
2022/09/02 07:53:17;;;;;;;5.97;1.70;;;18.50;58.50;;;;;;5014448;28;20033;-77
2022/09/02 07:55:44;;;;;;;4.15;1.90;;;18.60;58.20;;;;;;5013039;28;20534;-72
2022/09/02 07:58:11;;;;;;;5.88;1.77;;;18.70;58.00;;;;;;5012581;28;20109;-74
2022/09/02 08:00:37;;;;;;;5.25;2.33;;;18.80;57.40;;;;;;4994604;28;20054;-72
2022/09/02 08:03:04;;;;;;;2.63;1.90;;;18.70;58.80;;;;;;5012596;28;20026;-73
2022/09/02 08:05:31;;;;;;;2.78;1.95;;;18.60;59.00;;;;;;5013758;28;20374;-72
2022/09/02 08:07:57;;;;;;;3.55;1.83;;;18.80;58.50;;;;;;5013816;28;20026;-75
2022/09/02 08:10:28;;;;;;;3.35;1.40;;;18.70;58.20;;;;;;5013384;28;20083;-74
2022/09/02 08:12:54;;;;;;;5.05;2.00;;;18.70;57.80;;;;;;4994789;28;20026;-75
2022/09/02 08:15:21;;;;;;;4.53;2.00;;;18.80;57.70;;;;;;5012433;28;20044;-75
2022/09/02 08:17:47;;;;;;;8.23;2.10;;;18.90;58.10;;;;;;5013079;28;20030;-75
2022/09/02 08:20:16;;;;;;;4.05;2.22;;;19.00;57.40;;;;;;5013674;28;20033;-72
2022/09/02 08:22:42;;;;;;;2.63;1.40;;;19.10;57.30;;;;;;5013645;28;20026;-75
2022/09/02 08:25:09;;;;;;;4.55;1.52;;;19.20;57.30;;;;;;5013730;28;20457;-72
2022/09/02 08:27:36;;;;;;;3.92;1.88;;;19.30;56.70;;;;;;5013741;28;20034;-72
2022/09/02 08:30:03;;;;;;;2.53;1.27;;;19.40;56.70;;;;;;5013573;28;20038;-72
2022/09/02 08:32:31;;;;;;;12.15;1.90;;;19.50;56.40;;;;;;5013638;28;20025;-73
2022/09/02 08:35:01;;;;;;;4.22;1.77;;;19.60;55.20;;;;;;5012294;28;20032;-72
2022/09/02 08:37:30;;;;;;;3.88;2.00;;;19.70;55.10;;;;;;5012115;28;20026;-73
2022/09/02 08:39:56;;;;;;;4.40;1.50;;;19.80;53.70;;;;;;5012759;28;20032;-73
2022/09/02 08:42:40;;;;;;;4.43;1.40;;;19.80;52.00;;;;;;5013293;28;20026;-73
2022/09/02 08:45:17;;;;;;;2.03;1.60;;;19.70;51.70;;;;;;5013453;28;20026;-73
2022/09/02 08:47:48;;;;;;;2.80;1.67;;;19.60;51.10;;;;;;5013152;28;20029;-73
2022/09/02 08:50:15;;;;;;;2.22;1.60;;;19.40;49.90;;;;;;5013031;28;20030;-73
2022/09/02 08:53:00;;;;;;;1.63;1.38;;;19.30;51.60;;;;;;5013104;28;20383;-73
2022/09/02 08:55:50;;;;;;;2.85;1.80;;;19.30;50.90;;;;;;5012850;28;20540;-72
2022/09/02 08:58:22;;;;;;;3.55;1.45;;;19.30;50.90;;;;;;5012768;28;20037;-75
2022/09/02 09:01:19;;;;;;;2.72;1.70;;;19.40;50.00;;;;;;5012673;28;20041;-73
2022/09/02 09:04:20;;;;;;;3.67;1.60;;;19.40;50.40;;;;;;4995000;28;20084;-73
2022/09/02 09:07:12;;;;;;;7.88;1.90;;;19.50;50.20;;;;;;4914275;29;20024;-72
2022/09/02 09:09:56;;;;;;;4.28;1.63;;;19.60;51.00;;;;;;5009843;28;20390;-73
2022/09/02 09:12:47;;;;;;;3.40;1.25;;;19.70;50.30;;;;;;5012544;28;20022;-72
2022/09/02 09:15:24;;;;;;;4.70;1.55;;;19.80;50.10;;;;;;5012776;28;20117;-74
2022/09/02 09:17:57;;;;;;;3.65;1.70;;;19.90;49.00;;;;;;5012488;28;20026;-73
2022/09/02 09:20:29;;;;;;;3.40;1.40;;;20.00;49.60;;;;;;5012854;28;20473;-74
2022/09/02 09:22:56;;;;;;;1.85;1.58;;;20.10;49.00;;;;;;5012708;28;20037;-75
2022/09/02 09:25:28;;;;;;;2.00;1.48;;;20.10;48.80;;;;;;4994754;28;20555;-76
2022/09/02 09:27:55;;;;;;;3.78;1.33;;;20.30;47.80;;;;;;5012692;28;20026;-77
2022/09/02 09:30:22;;;;;;;1.83;1.10;;;20.50;48.90;;;;;;5014031;28;20033;-75
2022/09/02 09:33:03;;;;;;;4.63;1.73;;;20.70;48.50;;;;;;5016859;28;20561;-76
2022/09/02 09:35:50;;;;;;;2.40;1.70;;;20.80;46.20;;;;;;5016686;28;20029;-77
2022/09/02 09:38:26;;;;;;;3.28;1.30;;;20.90;45.50;;;;;;5016607;28;20029;-76
2022/09/02 09:41:20;;;;;;;3.00;1.55;;;20.90;45.00;;;;;;5016593;28;20474;-76
2022/09/02 09:43:46;;;;;;;1.90;1.50;;;20.80;45.60;;;;;;5016569;28;20026;-77
2022/09/02 09:46:32;;;;;;;4.00;1.58;;;20.80;45.00;;;;;;5016448;28;20026;-75
2022/09/02 09:48:58;;;;;;;3.45;1.30;;;20.80;45.00;;;;;;5016225;28;20462;-75
2022/09/02 09:51:24;;;;;;;4.93;1.58;;;20.90;44.40;;;;;;5016408;28;20054;-77
2022/09/02 09:53:51;;;;;;;3.05;1.55;;;20.90;43.70;;;;;;5015176;28;20018;-75
2022/09/02 09:56:17;;;;;;;1.58;1.45;;;21.10;44.80;;;;;;5015965;28;20049;-76
2022/09/02 09:58:45;;;;;;;2.88;1.30;;;21.20;43.00;;;;;;5015618;28;20477;-76
2022/09/02 10:01:31;;;;;;;1.65;1.42;;;21.30;43.80;;;;;;5016143;28;20395;-75
2022/09/02 10:04:12;;;;;;;2.13;1.30;;;21.40;44.80;;;;;;5015898;28;20491;-75
2022/09/02 10:06:42;;;;;;;2.83;1.20;;;21.60;43.30;;;;;;5015985;28;20026;-77
2022/09/02 10:09:18;;;;;;;1.30;1.20;;;21.50;42.90;;;;;;5015908;28;20128;-77
2022/09/02 10:12:05;;;;;;;4.43;2.07;;;21.50;43.60;;;;;;5015906;28;20026;-78
2022/09/02 10:14:43;;;;;;;1.48;1.30;;;21.50;44.00;;;;;;5015662;28;20022;-78
2022/09/02 10:17:24;;;;;;;5.13;1.60;;;21.70;44.00;;;;;;5015615;28;20022;-78
2022/09/02 10:20:09;;;;;;;3.72;1.38;;;21.70;42.50;;;;;;5015664;28;20034;-78
2022/09/02 10:22:48;;;;;;;1.77;1.45;;;21.80;41.20;;;;;;5015423;28;20049;-79
2022/09/02 10:25:37;;;;;;;2.35;1.20;;;22.00;41.50;;;;;;5015131;28;20125;-77
2022/09/02 10:28:27;;;;;;;3.25;1.65;;;22.20;38.60;;;;;;5015660;28;20022;-79
2022/09/02 10:31:11;;;;;;;1.95;1.50;;;22.20;39.60;;;;;;5015728;28;20359;-77
2022/09/02 10:34:12;;;;;;;4.00;1.30;;;22.40;40.70;;;;;;5015668;28;20041;-77
2022/09/02 10:36:56;;;;;;;2.45;1.20;;;22.60;40.60;;;;;;5015548;28;20018;-79
2022/09/02 10:39:51;;;;;;;2.03;1.40;;;22.70;37.80;;;;;;5015499;28;20497;-78
2022/09/02 10:42:28;;;;;;;3.15;1.40;;;22.60;39.50;;;;;;4997324;28;20437;-79
2022/09/02 10:45:16;;;;;;;2.78;1.40;;;22.90;41.60;;;;;;5015506;28;20026;-78
2022/09/02 10:47:45;;;;;;;2.80;2.05;;;23.30;37.70;;;;;;5015776;28;20030;-78
2022/09/02 10:50:19;;;;;;;2.00;1.38;;;23.20;37.10;;;;;;5015371;28;20149;-78
2022/09/02 10:53:01;;;;;;;1.30;1.20;;;23.20;36.90;;;;;;5017930;28;20026;-79
2022/09/02 10:55:43;;;;;;;3.25;1.25;;;23.20;35.60;;;;;;5016913;28;20018;-78
2022/09/02 10:58:24;;;;;;;1.70;1.15;;;23.20;35.00;;;;;;5015692;28;20107;-75
2022/09/02 11:00:53;;;;;;;1.88;1.30;;;23.30;36.30;;;;;;5014871;28;20038;-78
2022/09/02 11:03:28;;;;;;;1.67;1.30;;;23.40;36.10;;;;;;5014685;28;20034;-78
2022/09/02 11:05:59;;;;;;;3.38;1.20;;;23.40;36.00;;;;;;5014518;28;20030;-78
2022/09/02 11:08:38;;;;;;;3.30;1.25;;;23.50;37.90;;;;;;5018467;28;20450;-79
2022/09/02 11:11:10;;;;;;;1.83;1.30;;;23.80;36.30;;;;;;5016347;28;20041;-78
2022/09/02 11:13:53;;;;;;;1.20;1.05;;;24.00;35.60;;;;;;5014798;28;20022;-78
2022/09/02 11:16:27;;;;;;;2.75;1.60;;;24.00;35.70;;;;;;5014737;28;20470;-77
2022/09/02 11:18:59;;;;;;;2.60;1.40;;;24.00;34.90;;;;;;5014806;28;20033;-77
2022/09/02 11:21:33;;;;;;;2.67;1.00;;;24.10;36.10;;;;;;5014693;28;20021;-76
2022/09/02 11:24:23;;;;;;;1.73;1.40;;;23.90;35.30;;;;;;5014789;28;20506;-76
2022/09/02 11:27:08;;;;;;;1.20;1.00;;;23.70;35.60;;;;;;5014564;28;20076;-76
2022/09/02 11:30:06;;;;;;;1.15;1.05;;;23.90;35.60;;;;;;5014696;28;20474;-76
2022/09/02 11:32:38;;;;;;;2.65;0.88;;;24.10;34.20;;;;;;5014437;28;20589;-76
2022/09/02 11:35:13;;;;;;;2.22;1.35;;;24.30;34.40;;;;;;5014385;28;20054;-77
2022/09/02 11:37:40;;;;;;;1.30;1.13;;;24.60;34.20;;;;;;5014592;28;20477;-75
2022/09/02 11:40:28;;;;;;;4.85;1.15;;;24.80;33.30;;;;;;5014551;28;20041;-75
2022/09/02 11:43:11;;;;;;;1.85;0.98;;;24.80;33.30;;;;;;5014385;28;20022;-76
2022/09/02 11:45:54;;;;;;;1.95;1.73;;;25.10;34.20;;;;;;5014276;28;20022;-74
2022/09/02 11:48:39;;;;;;;1.42;1.30;;;25.50;32.80;;;;;;5014283;28;20026;-75
2022/09/02 11:51:30;;;;;;;1.42;1.23;;;25.80;31.60;;;;;;5014150;28;20160;-76
2022/09/02 11:53:58;;;;;;;3.40;1.17;;;26.00;30.30;;;;;;5013701;28;20550;-77
2022/09/02 11:56:34;;;;;;;3.50;1.17;;;25.90;30.70;;;;;;5013911;28;20466;-75
2022/09/02 11:59:00;;;;;;;3.17;1.20;;;26.00;31.30;;;;;;5013404;28;20037;-78
2022/09/02 12:01:37;;;;;;;1.15;0.98;;;25.70;31.30;;;;;;5014082;28;20037;-75
2022/09/02 12:04:11;;;;;;;1.10;0.95;;;25.70;30.50;;;;;;5014104;28;20025;-77
2022/09/02 12:06:57;;;;;;;2.43;1.00;;;25.70;30.80;;;;;;4996445;28;20023;-77
2022/09/02 12:09:41;;;;;;;;;;;26.00;32.00;;;;;;5014364;28;20324;-77
2022/09/02 12:12:07;;;;;;;1.75;1.17;;;26.20;31.60;;;;;;5014236;28;19997;-77
2022/09/02 12:14:33;;;;;;;3.28;0.90;;;26.40;33.00;;;;;;4996433;28;20105;-77
2022/09/02 12:17:03;;;;;;;1.83;1.10;;;26.70;31.60;;;;;;5013826;28;20026;-77
2022/09/02 12:19:40;;;;;;;4.25;1.10;;;26.90;32.10;;;;;;5013545;28;20034;-77
2022/09/02 12:22:14;;;;;;;2.05;1.10;;;26.90;30.10;;;;;;5012931;28;20531;-77
2022/09/02 12:24:51;;;;;;;3.40;0.95;;;27.10;31.30;;;;;;5010325;28;20490;-76
2022/09/02 12:27:36;;;;;;;1.20;1.10;;;27.50;31.70;;;;;;4994755;28;20029;-78
2022/09/02 12:30:05;;;;;;;1.60;1.27;;;27.80;30.70;;;;;;5013539;28;20510;-77
2022/09/02 12:32:49;;;;;;;1.30;1.20;;;27.90;30.10;;;;;;5013473;28;20109;-77
2022/09/02 12:35:56;;;;;;;2.88;1.10;;;28.20;29.00;;;;;;5013011;28;20032;-77
2022/09/02 12:38:35;;;;;;;1.77;1.30;;;28.20;28.90;;;;;;5006370;28;20601;-78
2022/09/02 12:41:04;;;;;;;3.72;1.00;;;27.90;28.20;;;;;;5011277;28;20022;-77
2022/09/02 12:43:46;;;;;;;4.43;1.20;;;27.80;28.80;;;;;;5012995;28;20471;-78
2022/09/02 12:46:36;;;;;;;1.10;1.00;;;27.80;28.90;;;;;;5013608;28;20038;-77
2022/09/02 12:49:24;;;;;;;3.38;1.30;;;28.10;30.10;;;;;;5013138;28;20041;-78
2022/09/02 12:51:50;;;;;;;1.67;0.80;;;28.60;28.70;;;;;;5013254;28;20096;-77
2022/09/02 12:54:17;;;;;;;3.42;1.30;;;28.80;28.20;;;;;;5012849;28;20100;-77
2022/09/02 12:56:49;;;;;;;2.45;1.02;;;28.90;26.50;;;;;;5012991;28;20032;-78
2022/09/02 12:59:33;;;;;;;2.60;1.20;;;29.00;27.30;;;;;;5012751;28;20050;-78
2022/09/02 13:02:09;;;;;;;1.33;0.93;;;29.30;28.20;;;;;;5012756;28;20025;-78
2022/09/02 13:05:03;;;;;;;2.35;0.93;;;29.60;27.00;;;;;;5012074;28;20038;-78
2022/09/02 13:08:19;;;;;;;3.42;1.08;;;29.80;25.60;;;;;;5012652;28;20049;-77
2022/09/02 13:11:19;;;;;;;4.15;1.10;;;29.40;26.60;;;;;;4976179;28;20045;-76